createdAt,value
2019-06-01T00:00:12.046Z,14.38
2019-06-01T00:02:40.864Z,14.37
2019-06-01T00:05:09.451Z,14.37
2019-06-01T00:07:38.773Z,14.37
2019-06-01T00:10:08.362Z,14.38
2019-06-01T00:12:37.511Z,14.38
2019-06-01T00:15:07.346Z,14.38
2019-06-01T00:17:36.506Z,14.37
2019-06-01T00:20:05.930Z,14.31
2019-06-01T00:22:35.097Z,14.20
2019-06-01T00:25:05.609Z,14.06
2019-06-01T00:27:34.772Z,13.93
2019-06-01T00:30:06.001Z,13.83
2019-06-01T00:32:35.159Z,13.84
2019-06-01T00:35:05.653Z,13.90
2019-06-01T00:37:34.830Z,13.95
2019-06-01T00:40:07.934Z,14.03
2019-06-01T00:42:37.066Z,14.08
2019-06-01T00:45:08.225Z,14.12
2019-06-01T00:47:37.425Z,14.18
2019-06-01T00:50:07.324Z,14.25
2019-06-01T00:52:36.599Z,14.29
2019-06-01T00:55:06.381Z,14.30
2019-06-01T00:57:35.872Z,14.32
2019-06-01T01:00:08.849Z,14.34
2019-06-01T01:02:38.021Z,14.38
2019-06-01T01:05:12.034Z,14.39
2019-06-01T01:07:41.204Z,14.41
2019-06-01T01:10:11.406Z,14.41
2019-06-01T01:12:58.862Z,14.41
2019-06-01T01:15:28.020Z,14.43
2019-06-01T01:17:57.461Z,14.43
2019-06-01T01:20:26.703Z,14.43
2019-06-01T01:22:56.474Z,14.43
2019-06-01T01:25:24.859Z,14.43
2019-06-01T01:27:54.815Z,14.42
2019-06-01T01:30:24.242Z,14.40
2019-06-01T01:32:53.660Z,14.37
2019-06-01T01:35:22.926Z,14.35
2019-06-01T01:37:53.921Z,14.35
2019-06-01T01:40:23.030Z,14.36
2019-06-01T01:42:52.849Z,14.36
2019-06-01T01:45:22.505Z,14.39
2019-06-01T01:47:52.860Z,14.40
2019-06-01T01:50:24.397Z,14.41
2019-06-01T01:52:54.709Z,14.42
2019-06-01T01:55:24.011Z,14.43
2019-06-01T01:57:53.450Z,14.46
2019-06-01T02:00:40.110Z,14.50
2019-06-01T02:03:10.533Z,14.52
2019-06-01T02:05:39.686Z,14.52
2019-06-01T02:08:09.079Z,14.53
2019-06-01T02:10:38.423Z,14.53
2019-06-01T02:13:07.760Z,14.55
2019-06-01T02:15:40.082Z,14.55
2019-06-01T02:18:09.358Z,14.54
2019-06-01T02:20:38.575Z,14.53
2019-06-01T02:23:07.736Z,14.53
2019-06-01T02:25:37.065Z,14.51
2019-06-01T02:28:06.289Z,14.50
2019-06-01T02:30:35.449Z,14.49
2019-06-01T02:33:04.886Z,14.47
2019-06-01T02:35:34.217Z,14.46
2019-06-01T02:38:05.476Z,14.43
2019-06-01T02:40:34.351Z,14.42
2019-06-01T02:43:05.930Z,14.39
2019-06-01T02:45:34.561Z,14.35
2019-06-01T02:48:04.486Z,14.32
2019-06-01T02:50:35.131Z,14.30
2019-06-01T02:53:04.320Z,14.30
2019-06-01T02:55:33.487Z,14.31
2019-06-01T02:58:02.665Z,14.33
2019-06-01T03:00:56.597Z,14.35
2019-06-01T03:03:25.762Z,14.38
2019-06-01T03:05:57.360Z,14.36
2019-06-01T03:08:27.227Z,14.36
2019-06-01T03:10:57.611Z,14.32
2019-06-01T03:13:28.563Z,14.29
2019-06-01T03:16:00.292Z,14.26
2019-06-01T03:18:31.017Z,14.23
2019-06-01T03:21:01.663Z,14.22
2019-06-01T03:23:31.793Z,14.18
2019-06-01T03:26:04.194Z,14.15
2019-06-01T03:28:36.733Z,14.12
2019-06-01T03:31:08.223Z,14.10
2019-06-01T03:33:36.772Z,14.07
2019-06-01T03:36:06.918Z,14.06
2019-06-01T03:38:36.194Z,14.01
2019-06-01T03:41:06.326Z,14.01
2019-06-01T03:43:35.512Z,14.00
2019-06-01T03:46:06.645Z,14.00
2019-06-01T03:48:35.890Z,14.01
2019-06-01T03:51:05.723Z,14.01
2019-06-01T03:53:34.909Z,14.00
2019-06-01T03:56:04.959Z,13.99
2019-06-01T03:58:34.175Z,13.96
2019-06-01T04:01:03.332Z,13.93
2019-06-01T04:03:32.494Z,13.93
2019-06-01T04:06:03.347Z,13.94
2019-06-01T04:08:32.549Z,13.94
2019-06-01T04:11:01.744Z,13.97
2019-06-01T04:13:30.927Z,13.97
2019-06-01T04:16:00.101Z,13.95
2019-06-01T04:18:48.624Z,13.97
2019-06-01T04:21:17.788Z,13.98
2019-06-01T04:23:46.946Z,13.99
2019-06-01T04:26:16.142Z,14.01
2019-06-01T04:28:45.294Z,14.05
2019-06-01T04:31:14.459Z,14.07
2019-06-01T04:33:43.656Z,14.10
2019-06-01T04:36:13.127Z,14.14
2019-06-01T04:38:42.363Z,14.17
2019-06-01T04:41:12.058Z,14.19
2019-06-01T04:43:41.303Z,14.20
2019-06-01T04:46:10.754Z,14.25
2019-06-01T04:48:39.945Z,14.28
2019-06-01T04:51:09.097Z,14.32
2019-06-01T04:53:38.259Z,14.36
2019-06-01T04:56:07.441Z,14.39
2019-06-01T04:58:36.614Z,14.37
2019-06-01T05:01:06.889Z,14.39
2019-06-01T05:03:36.493Z,14.37
2019-06-01T05:06:07.078Z,14.38
2019-06-01T05:08:36.372Z,14.38
2019-06-01T05:11:07.059Z,14.42
2019-06-01T05:13:36.483Z,14.46
2019-06-01T05:16:05.935Z,14.51
2019-06-01T05:18:35.101Z,14.61
2019-06-01T05:21:04.294Z,14.69
2019-06-01T05:23:33.446Z,14.75
2019-06-01T05:26:02.671Z,14.80
2019-06-01T05:28:31.844Z,14.84
2019-06-01T05:31:01.013Z,14.88
2019-06-01T05:33:37.347Z,14.95
2019-06-01T05:36:01.095Z,15.02
2019-06-01T05:38:30.384Z,15.11
2019-06-01T05:40:59.549Z,15.18
2019-06-01T05:43:28.715Z,15.28
2019-06-01T05:45:57.904Z,15.35
2019-06-01T05:48:30.543Z,15.46
2019-06-01T05:50:58.071Z,15.57
2019-06-01T05:53:27.232Z,15.66
2019-06-01T05:55:56.501Z,15.76
2019-06-01T05:58:25.662Z,15.85
2019-06-01T06:00:56.652Z,15.95
2019-06-01T06:03:39.501Z,15.99
2019-06-01T06:05:58.374Z,16.07
2019-06-01T06:08:27.535Z,16.15
2019-06-01T06:10:57.000Z,16.21
2019-06-01T06:13:26.165Z,16.30
2019-06-01T06:15:55.328Z,16.38
2019-06-01T06:18:24.560Z,16.46
2019-06-01T06:20:53.732Z,16.54
2019-06-01T06:23:22.909Z,16.61
2019-06-01T06:25:52.204Z,16.67
2019-06-01T06:28:21.375Z,16.75
2019-06-01T06:30:50.550Z,16.84
2019-06-01T06:33:19.745Z,16.89
2019-06-01T06:35:48.900Z,16.92
2019-06-01T06:38:18.055Z,16.99
2019-06-01T06:40:47.331Z,17.05
2019-06-01T06:43:21.306Z,17.13
2019-06-01T06:45:47.455Z,17.23
2019-06-01T06:48:16.932Z,17.30
2019-06-01T06:50:46.179Z,17.37
2019-06-01T06:53:25.395Z,17.43
2019-06-01T06:55:46.257Z,17.50
2019-06-01T06:58:15.976Z,17.61
2019-06-01T07:00:45.182Z,17.71
2019-06-01T07:03:14.399Z,17.82
2019-06-01T07:05:43.569Z,17.95
2019-06-01T07:08:12.840Z,18.07
2019-06-01T07:10:42.019Z,18.19
2019-06-01T07:13:11.194Z,18.43
2019-06-01T07:15:40.350Z,18.95
2019-06-01T07:18:10.531Z,19.59
2019-06-01T07:20:39.727Z,20.31
2019-06-01T07:23:08.875Z,21.03
2019-06-01T07:25:38.175Z,21.75
2019-06-01T07:28:07.339Z,22.52
2019-06-01T07:30:49.555Z,23.24
2019-06-01T07:33:07.732Z,23.88
2019-06-01T07:35:36.948Z,24.35
2019-06-01T07:38:06.112Z,24.86
2019-06-01T07:40:35.406Z,25.22
2019-06-01T07:43:06.111Z,25.76
2019-06-01T07:45:35.440Z,26.33
2019-06-01T07:48:04.701Z,26.72
2019-06-01T07:50:33.855Z,27.01
2019-06-01T07:53:03.112Z,27.35
2019-06-01T07:55:32.291Z,27.51
2019-06-01T07:58:01.460Z,27.25
2019-06-01T08:00:31.016Z,27.68
2019-06-01T08:03:00.191Z,27.57
2019-06-01T08:05:30.181Z,27.25
2019-06-01T08:07:59.392Z,26.92
2019-06-01T08:10:29.630Z,26.61
2019-06-01T08:12:58.941Z,26.06
2019-06-01T08:15:28.349Z,25.34
2019-06-01T08:17:57.824Z,25.09
2019-06-01T08:20:26.323Z,24.71
2019-06-01T08:22:55.550Z,24.35
2019-06-01T08:25:24.718Z,24.08
2019-06-01T08:27:53.263Z,23.94
2019-06-01T08:30:22.611Z,23.84
2019-06-01T08:32:51.193Z,23.79
2019-06-01T08:35:20.358Z,23.80
2019-06-01T08:37:49.573Z,23.87
2019-06-01T08:40:19.052Z,23.98
2019-06-01T08:42:48.308Z,24.16
2019-06-01T08:45:17.477Z,24.16
2019-06-01T08:47:46.649Z,24.11
2019-06-01T08:50:15.982Z,24.18
2019-06-01T08:52:44.454Z,24.30
2019-06-01T08:55:13.566Z,24.37
2019-06-01T08:57:42.737Z,24.30
2019-06-01T09:00:12.552Z,24.26
2019-06-01T09:02:41.706Z,24.36
2019-06-01T09:05:23.978Z,24.32
2019-06-01T09:07:42.186Z,24.40
2019-06-01T09:10:11.863Z,24.45
2019-06-01T09:12:41.028Z,24.60
2019-06-01T09:15:10.733Z,24.37
2019-06-01T09:17:39.918Z,24.44
2019-06-01T09:20:09.476Z,24.46
2019-06-01T09:22:38.638Z,24.61
2019-06-01T09:25:08.303Z,24.63
2019-06-01T09:27:37.473Z,24.75
2019-06-01T09:30:09.706Z,24.73
2019-06-01T09:32:38.895Z,24.92
2019-06-01T09:35:08.230Z,25.14
2019-06-01T09:37:36.816Z,25.28
2019-06-01T09:40:06.904Z,25.15
2019-06-01T09:42:37.522Z,25.14
2019-06-01T09:45:07.250Z,25.13
2019-06-01T09:47:37.674Z,25.15
2019-06-01T09:50:08.165Z,25.10
2019-06-01T09:52:37.809Z,25.05
2019-06-01T09:55:08.436Z,24.96
2019-06-01T09:57:38.384Z,25.12
2019-06-01T10:00:10.032Z,25.22
2019-06-01T10:02:39.538Z,25.15
2019-06-01T10:05:08.857Z,25.27
2019-06-01T10:07:39.092Z,25.38
2019-06-01T10:10:08.672Z,25.38
2019-06-01T10:12:38.318Z,25.46
2019-06-01T10:15:10.939Z,25.39
2019-06-01T10:17:42.984Z,25.40
2019-06-01T10:20:12.619Z,25.38
2019-06-01T10:22:42.077Z,25.40
2019-06-01T10:25:11.413Z,25.51
2019-06-01T10:27:40.219Z,25.61
2019-06-01T10:30:11.183Z,25.59
2019-06-01T10:32:40.535Z,25.61
2019-06-01T10:35:10.325Z,25.58
2019-06-01T10:37:41.710Z,25.66
2019-06-01T10:40:11.187Z,25.77
2019-06-01T10:42:39.928Z,25.80
2019-06-01T10:45:09.486Z,25.81
2019-06-01T10:47:40.113Z,25.75
2019-06-01T10:50:10.072Z,25.67
2019-06-01T10:52:40.393Z,25.74
2019-06-01T10:55:09.956Z,25.79
2019-06-01T10:57:40.517Z,25.84
2019-06-01T11:00:12.287Z,25.87
2019-06-01T11:02:41.523Z,25.82
2019-06-01T11:05:09.970Z,25.80
2019-06-01T11:07:39.237Z,25.87
2019-06-01T11:10:08.117Z,25.85
2019-06-01T11:12:37.215Z,25.80
2019-06-01T11:15:07.628Z,25.81
2019-06-01T11:17:37.097Z,25.75
2019-06-01T11:20:07.075Z,25.70
2019-06-01T11:22:37.357Z,25.77
2019-06-01T11:25:07.613Z,25.92
2019-06-01T11:27:37.785Z,26.01
2019-06-01T11:30:10.988Z,26.06
2019-06-01T11:32:41.877Z,26.16
2019-06-01T11:35:11.227Z,26.23
2019-06-01T11:37:40.545Z,26.30
2019-06-01T11:40:10.020Z,26.34
2019-06-01T11:42:39.190Z,26.33
2019-06-01T11:45:07.702Z,26.42
2019-06-01T11:47:36.923Z,26.49
2019-06-01T11:50:05.627Z,26.52
2019-06-01T11:52:34.992Z,26.54
2019-06-01T11:55:07.288Z,26.48
2019-06-01T11:57:37.459Z,26.55
2019-06-01T12:00:14.902Z,26.58
2019-06-01T12:02:44.068Z,26.57
2019-06-01T12:05:12.698Z,26.62
2019-06-01T12:07:42.020Z,26.73
2019-06-01T12:10:12.351Z,26.78
2019-06-01T12:12:42.381Z,26.70
2019-06-01T12:15:12.013Z,26.68
2019-06-01T12:17:41.162Z,26.59
2019-06-01T12:20:09.681Z,26.57
2019-06-01T12:22:38.884Z,26.66
2019-06-01T12:25:07.297Z,26.72
2019-06-01T12:27:37.352Z,26.72
2019-06-01T12:30:07.531Z,26.80
2019-06-01T12:32:37.841Z,26.82
2019-06-01T12:35:08.733Z,26.64
2019-06-01T12:37:56.130Z,26.69
2019-06-01T12:40:09.494Z,26.76
2019-06-01T12:42:39.777Z,26.73
2019-06-01T12:45:12.229Z,26.86
2019-06-01T12:47:41.881Z,26.93
2019-06-01T12:50:11.167Z,26.98
2019-06-01T12:52:40.399Z,26.96
2019-06-01T12:55:08.846Z,27.11
2019-06-01T12:57:37.938Z,27.19
2019-06-01T13:00:06.948Z,27.31
2019-06-01T13:02:36.239Z,27.43
2019-06-01T13:05:07.005Z,27.44
2019-06-01T13:07:50.807Z,27.41
2019-06-01T13:10:07.833Z,27.28
2019-06-01T13:12:37.002Z,27.33
2019-06-01T13:15:06.049Z,27.36
2019-06-01T13:17:35.217Z,27.45
2019-06-01T13:20:05.343Z,27.50
2019-06-01T13:22:34.588Z,27.59
2019-06-01T13:25:05.292Z,27.65
2019-06-01T13:27:34.489Z,27.56
2019-06-01T13:30:04.393Z,27.66
2019-06-01T13:32:33.487Z,27.64
2019-06-01T13:35:01.930Z,27.71
2019-06-01T13:37:31.049Z,27.81
2019-06-01T13:39:59.503Z,28.00
2019-06-01T13:42:28.607Z,28.00
2019-06-01T13:44:57.081Z,28.07
2019-06-01T13:47:26.188Z,28.01
2019-06-01T13:49:55.345Z,27.94
2019-06-01T13:52:23.820Z,27.81
2019-06-01T13:54:52.913Z,27.81
2019-06-01T13:57:21.407Z,27.87
2019-06-01T13:59:50.938Z,27.94
2019-06-01T14:02:20.172Z,28.16
2019-06-01T14:04:49.813Z,28.30
2019-06-01T14:07:19.042Z,28.35
2019-06-01T14:09:47.493Z,28.49
2019-06-01T14:12:16.637Z,28.49
2019-06-01T14:14:45.373Z,28.21
2019-06-01T14:17:14.483Z,28.10
2019-06-01T14:19:42.925Z,28.14
2019-06-01T14:22:12.114Z,28.15
2019-06-01T14:24:44.602Z,28.25
2019-06-01T14:27:11.668Z,28.28
2019-06-01T14:29:40.147Z,28.38
2019-06-01T14:32:09.302Z,28.41
2019-06-01T14:34:37.776Z,28.50
2019-06-01T14:37:06.960Z,28.53
2019-06-01T14:39:36.130Z,28.62
2019-06-01T14:42:04.596Z,28.67
2019-06-01T14:44:33.731Z,28.70
2019-06-01T14:47:05.985Z,28.74
2019-06-01T14:49:33.316Z,28.82
2019-06-01T14:52:02.494Z,28.87
2019-06-01T14:54:31.657Z,28.74
2019-06-01T14:57:02.056Z,28.63
2019-06-01T14:59:32.135Z,28.58
2019-06-01T15:02:01.278Z,28.52
2019-06-01T15:04:29.714Z,28.51
2019-06-01T15:06:58.842Z,28.56
2019-06-01T15:09:27.312Z,28.61
2019-06-01T15:11:56.706Z,28.66
2019-06-01T15:14:26.943Z,28.74
2019-06-01T15:16:56.322Z,28.73
2019-06-01T15:19:25.586Z,28.68
2019-06-01T15:21:56.110Z,28.64
2019-06-01T15:24:25.506Z,28.69
2019-06-01T15:26:54.734Z,28.74
2019-06-01T15:29:23.923Z,28.76
2019-06-01T15:31:53.084Z,28.88
2019-06-01T15:34:22.257Z,28.83
2019-06-01T15:36:51.657Z,28.82
2019-06-01T15:39:24.965Z,28.88
2019-06-01T15:41:53.028Z,28.94
2019-06-01T15:44:22.365Z,29.00
2019-06-01T15:46:51.652Z,29.08
2019-06-01T15:49:20.835Z,29.01
2019-06-01T15:51:50.091Z,28.94
2019-06-01T15:54:19.264Z,28.88
2019-06-01T15:56:48.452Z,28.82
2019-06-01T15:59:17.606Z,28.75
2019-06-01T16:01:47.149Z,28.83
2019-06-01T16:04:16.314Z,28.78
2019-06-01T16:06:45.507Z,28.75
2019-06-01T16:09:14.678Z,28.71
2019-06-01T16:11:43.844Z,28.65
2019-06-01T16:14:13.041Z,28.73
2019-06-01T16:16:42.201Z,28.75
2019-06-01T16:19:11.445Z,28.77
2019-06-01T16:21:40.633Z,28.71
2019-06-01T16:24:09.888Z,28.61
2019-06-01T16:26:39.066Z,28.46
2019-06-01T16:29:08.252Z,28.32
2019-06-01T16:31:37.532Z,28.19
2019-06-01T16:34:06.708Z,28.06
2019-06-01T16:36:35.250Z,27.92
2019-06-01T16:39:08.084Z,27.84
2019-06-01T16:41:37.488Z,27.83
2019-06-01T16:44:06.710Z,27.90
2019-06-01T16:46:35.863Z,27.93
2019-06-01T16:49:04.328Z,27.90
2019-06-01T16:51:56.642Z,27.83
2019-06-01T16:54:26.337Z,27.78
2019-06-01T16:56:55.921Z,27.67
2019-06-01T16:59:25.118Z,27.54
2019-06-01T17:01:53.762Z,27.41
2019-06-01T17:04:22.922Z,27.29
2019-06-01T17:06:51.687Z,27.18
2019-06-01T17:09:21.531Z,26.98
2019-06-01T17:11:50.942Z,26.79
2019-06-01T17:14:20.149Z,26.58
2019-06-01T17:16:48.603Z,26.43
2019-06-01T17:19:17.774Z,26.29
2019-06-01T17:21:46.235Z,26.14
2019-06-01T17:24:15.329Z,26.03
2019-06-01T17:26:44.488Z,25.96
2019-06-01T17:29:13.685Z,25.92
2019-06-01T17:31:53.953Z,25.87
2019-06-01T17:34:13.723Z,25.81
2019-06-01T17:36:42.919Z,25.75
2019-06-01T17:39:12.274Z,25.69
2019-06-01T17:41:40.714Z,25.61
2019-06-01T17:44:09.817Z,25.57
2019-06-01T17:46:52.954Z,25.48
2019-06-01T17:49:09.881Z,25.36
2019-06-01T17:51:39.052Z,25.29
2019-06-01T17:54:08.462Z,25.22
2019-06-01T17:56:36.846Z,25.12
2019-06-01T17:59:06.031Z,25.04
2019-06-01T18:01:35.195Z,24.94
2019-06-01T18:04:04.354Z,24.84
2019-06-01T18:06:33.546Z,24.78
2019-06-01T18:09:03.796Z,24.70
2019-06-01T18:11:33.035Z,24.67
2019-06-01T18:14:02.245Z,24.63
2019-06-01T18:16:31.568Z,24.65
2019-06-01T18:19:00.026Z,24.67
2019-06-01T18:21:29.156Z,24.65
2019-06-01T18:23:58.313Z,24.64
2019-06-01T18:26:27.794Z,24.60
2019-06-01T18:28:56.979Z,24.56
2019-06-01T18:31:26.418Z,24.52
2019-06-01T18:33:55.651Z,24.51
2019-06-01T18:36:24.837Z,24.49
2019-06-01T18:41:52.223Z,24.39
2019-06-01T18:44:21.483Z,24.35
2019-06-01T18:46:50.710Z,24.29
2019-06-01T18:49:20.057Z,24.19
2019-06-01T18:51:48.495Z,24.14
2019-06-01T18:54:17.595Z,24.11
2019-06-01T18:56:46.773Z,24.06
2019-06-01T18:59:15.963Z,23.98
2019-06-01T19:04:13.922Z,23.78
2019-06-01T19:06:43.096Z,23.67
2019-06-01T19:09:13.437Z,23.62
2019-06-01T19:11:42.873Z,23.56
2019-06-01T19:14:12.045Z,23.53
2019-06-01T19:16:41.214Z,23.47
2019-06-01T19:19:10.400Z,23.43
2019-06-01T19:21:39.571Z,23.34
2019-06-01T19:24:08.790Z,23.27
2019-06-01T19:26:37.922Z,23.18
2019-06-01T19:29:07.099Z,23.05
2019-06-01T19:31:36.259Z,22.85
2019-06-01T19:34:06.870Z,22.71
2019-06-01T19:36:37.925Z,22.58
2019-06-01T19:39:11.131Z,22.47
2019-06-01T19:41:44.927Z,22.33
2019-06-01T19:44:11.494Z,22.15
2019-06-01T19:46:40.807Z,21.94
2019-06-01T19:49:11.002Z,21.73
2019-06-01T19:51:41.536Z,21.56
2019-06-01T19:54:11.040Z,21.45
2019-06-01T19:56:39.480Z,21.38
2019-06-01T19:59:09.764Z,21.27
2019-06-01T20:01:39.140Z,21.20
2019-06-01T20:04:08.297Z,21.12
2019-06-01T20:06:37.474Z,21.02
2019-06-01T20:09:07.506Z,20.86
2019-06-01T20:11:36.696Z,20.67
2019-06-01T20:14:05.880Z,20.49
2019-06-01T20:16:35.048Z,20.37
2019-06-01T20:19:04.289Z,20.22
2019-06-01T20:21:33.473Z,20.10
2019-06-01T20:24:02.648Z,20.02
2019-06-01T20:26:42.028Z,19.94
2019-06-01T20:29:02.981Z,19.85
2019-06-01T20:31:32.137Z,19.83
2019-06-01T20:34:01.396Z,19.78
2019-06-01T20:36:30.761Z,19.72
2019-06-01T20:39:04.317Z,19.65
2019-06-01T20:41:31.442Z,19.58
2019-06-01T20:44:00.624Z,19.52
2019-06-01T20:46:29.794Z,19.42
2019-06-01T20:48:58.961Z,19.33
2019-06-01T20:51:28.417Z,19.25
2019-06-01T20:53:57.663Z,19.18
2019-06-01T20:56:26.826Z,19.13
2019-06-01T20:58:56.004Z,19.07
2019-06-01T21:01:25.239Z,18.99
2019-06-01T21:03:54.507Z,18.93
2019-06-01T21:06:24.035Z,18.86
2019-06-01T21:08:52.500Z,18.81
2019-06-01T21:11:22.309Z,18.78
2019-06-01T21:13:51.561Z,18.74
2019-06-01T21:16:20.712Z,18.69
2019-06-01T21:18:49.874Z,18.64
2019-06-01T21:21:19.052Z,18.58
2019-06-01T21:23:48.208Z,18.53
2019-06-01T21:26:18.846Z,18.46
2019-06-01T21:28:48.143Z,18.41
2019-06-01T21:31:17.305Z,18.35
2019-06-01T21:33:46.465Z,18.31
2019-06-01T21:36:15.641Z,18.28
2019-06-01T21:38:44.805Z,18.24
2019-06-01T21:41:15.401Z,18.19
2019-06-01T21:43:44.620Z,18.13
2019-06-01T21:46:13.777Z,18.10
2019-06-01T21:48:42.942Z,18.05
2019-06-01T21:51:12.124Z,18.00
2019-06-01T21:53:41.283Z,17.96
2019-06-01T21:56:10.456Z,17.91
2019-06-01T21:58:39.626Z,17.88
2019-06-01T22:01:08.780Z,17.84
2019-06-01T22:03:37.938Z,17.81
2019-06-01T22:06:07.167Z,17.76
2019-06-01T22:08:36.307Z,17.70
2019-06-01T22:11:05.505Z,17.66
2019-06-01T22:13:34.680Z,17.62
2019-06-01T22:16:03.837Z,17.59
2019-06-01T22:18:33.103Z,17.56
2019-06-01T22:21:02.280Z,17.52
2019-06-01T22:23:31.439Z,17.50
2019-06-01T22:26:00.603Z,17.47
2019-06-01T22:28:29.768Z,17.43
2019-06-01T22:30:59.197Z,17.40
2019-06-01T22:33:28.736Z,17.36
2019-06-01T22:35:57.295Z,17.34
2019-06-01T22:38:27.833Z,17.30
2019-06-01T22:40:56.972Z,17.28
2019-06-01T22:43:41.193Z,17.26
2019-06-01T22:45:57.022Z,17.22
2019-06-01T22:48:26.637Z,17.18
2019-06-01T22:50:55.126Z,17.15
2019-06-01T22:53:24.236Z,17.12
2019-06-01T22:55:53.393Z,17.11
2019-06-01T22:58:23.257Z,17.08
2019-06-01T23:00:52.410Z,17.05
2019-06-01T23:03:21.864Z,17.02
2019-06-01T23:05:51.027Z,16.98
2019-06-01T23:08:20.947Z,16.94
2019-06-01T23:10:50.216Z,16.91
2019-06-01T23:13:19.388Z,16.89
2019-06-01T23:15:48.565Z,16.87
2019-06-01T23:18:17.712Z,16.86
2019-06-01T23:21:06.217Z,16.83
2019-06-01T23:23:35.387Z,16.81
2019-06-01T23:26:04.546Z,16.81
2019-06-01T23:28:33.715Z,16.80
2019-06-01T23:31:02.886Z,16.81
2019-06-01T23:33:33.065Z,16.79
2019-06-01T23:36:02.292Z,16.79
2019-06-01T23:38:32.582Z,16.76
2019-06-01T23:41:02.096Z,16.75
2019-06-01T23:43:31.275Z,16.75
2019-06-01T23:46:00.442Z,16.73
2019-06-01T23:48:29.602Z,16.72
2019-06-01T23:50:59.100Z,16.74
2019-06-01T23:53:29.487Z,16.72
2019-06-01T23:55:58.796Z,16.71
2019-06-01T23:58:28.089Z,16.69
